createdAt,value
2022-09-18T00:01:58.695Z,96105.34
2022-09-18T00:06:15.332Z,96124.38
2022-09-18T00:10:28.582Z,96117.03
2022-09-18T00:14:41.840Z,96125.72
2022-09-18T00:18:54.979Z,96131.97
2022-09-18T00:23:08.007Z,96128.16
2022-09-18T00:27:28.857Z,96123.88
2022-09-18T00:31:42.440Z,96135.88
2022-09-18T00:35:56.041Z,96139.06
2022-09-18T00:40:11.789Z,96130.75
2022-09-18T00:44:30.703Z,96127.38
2022-09-18T00:49:03.877Z,96141.56
2022-09-18T00:53:17.220Z,96136.66
2022-09-18T00:57:33.801Z,96146.94
2022-09-18T01:01:46.879Z,96146.63
2022-09-18T01:06:10.266Z,96148.69
2022-09-18T01:10:47.886Z,96155.41
2022-09-18T01:15:16.484Z,96150.88
2022-09-18T01:20:08.463Z,96167.50
2022-09-18T01:24:43.236Z,96158.34
2022-09-18T01:28:56.238Z,96154.72
2022-09-18T01:33:44.934Z,96154.47
2022-09-18T01:38:16.979Z,96162.06
2022-09-18T01:42:33.340Z,96159.97
2022-09-18T01:46:46.932Z,96156.81
2022-09-18T01:51:32.818Z,96158.03
2022-09-18T01:56:05.263Z,96162.53
2022-09-18T02:00:19.407Z,96152.88
2022-09-18T02:04:36.771Z,96153.63
2022-09-18T02:08:56.043Z,96154.84
2022-09-18T02:13:12.050Z,96141.97
2022-09-18T02:17:43.821Z,96152.94
2022-09-18T02:22:00.187Z,96141.16
2022-09-18T02:26:15.376Z,96130.50
2022-09-18T02:30:29.881Z,96143.81
2022-09-18T02:34:53.188Z,96128.56
2022-09-18T02:39:36.717Z,96130.63
2022-09-18T02:43:58.060Z,96135.09
2022-09-18T02:48:32.757Z,96125.75
2022-09-18T02:53:09.482Z,96128.53
2022-09-18T02:57:39.624Z,96114.75
2022-09-18T03:01:54.863Z,96114.16
2022-09-18T03:06:08.833Z,96114.63
2022-09-18T03:10:22.056Z,96116.28
2022-09-18T03:14:36.096Z,96124.75
2022-09-18T03:18:49.388Z,96123.69
2022-09-18T03:23:02.500Z,96107.31
2022-09-18T03:27:18.072Z,96123.25
2022-09-18T03:31:31.478Z,96122.38
2022-09-18T03:35:44.950Z,96123.09
2022-09-18T03:39:58.086Z,96123.09
2022-09-18T03:44:11.324Z,96117.88
2022-09-18T03:48:24.680Z,96134.91
2022-09-18T03:52:37.902Z,96127.41
2022-09-18T03:56:50.992Z,96137.50
2022-09-18T04:01:04.814Z,96143.34
2022-09-18T04:05:18.309Z,96127.53
2022-09-18T04:09:32.809Z,96127.09
2022-09-18T04:13:45.901Z,96127.72
2022-09-18T04:17:59.074Z,96144.81
2022-09-18T04:22:12.224Z,96134.78
2022-09-18T04:26:27.192Z,96139.22
2022-09-18T04:30:40.425Z,96150.88
2022-09-18T04:34:53.479Z,96151.63
2022-09-18T04:39:06.487Z,96149.19
2022-09-18T04:43:21.254Z,96145.06
2022-09-18T04:47:34.272Z,96144.78
2022-09-18T04:51:47.463Z,96142.28
2022-09-18T04:56:00.460Z,96146.66
2022-09-18T05:00:13.779Z,96152.31
2022-09-18T05:04:26.972Z,96152.31
2022-09-18T05:08:40.462Z,96162.44
2022-09-18T05:12:53.774Z,96158.31
2022-09-18T05:17:08.347Z,96169.22
2022-09-18T05:21:21.602Z,96169.84
2022-09-18T05:25:34.796Z,96160.22
2022-09-18T05:29:48.604Z,96169.41
2022-09-18T05:34:02.017Z,96176.84
2022-09-18T05:38:15.321Z,96178.78
2022-09-18T05:42:29.102Z,96174.34
2022-09-18T05:46:42.461Z,96188.25
2022-09-18T05:50:56.856Z,96177.41
2022-09-18T05:55:10.504Z,96176.31
2022-09-18T05:59:23.510Z,96173.75
2022-09-18T06:03:36.753Z,96170.38
2022-09-18T06:07:50.964Z,96168.56
2022-09-18T06:12:04.058Z,96173.59
2022-09-18T06:16:17.505Z,96187.69
2022-09-18T06:20:30.930Z,96175.00
2022-09-18T06:24:43.994Z,96184.38
2022-09-18T06:28:57.272Z,96188.53
2022-09-18T06:33:11.327Z,96180.09
2022-09-18T06:37:24.870Z,96190.06
2022-09-18T06:41:38.066Z,96177.19
2022-09-18T06:45:53.218Z,96194.97
2022-09-18T06:50:08.824Z,96186.69
2022-09-18T06:54:22.043Z,96181.19
2022-09-18T06:58:36.117Z,96186.72
2022-09-18T07:02:58.983Z,96196.06
2022-09-18T07:07:12.204Z,96200.22
2022-09-18T07:11:25.256Z,96193.78
2022-09-18T07:15:38.464Z,96205.59
2022-09-18T07:19:51.469Z,96213.41
2022-09-18T07:24:04.703Z,96207.41
2022-09-18T07:28:17.899Z,96206.34
2022-09-18T07:32:30.995Z,96222.63
2022-09-18T07:36:44.435Z,96208.97
2022-09-18T07:40:57.634Z,96216.78
2022-09-18T07:45:10.917Z,96211.56
2022-09-18T07:49:24.065Z,96212.78
2022-09-18T07:53:38.396Z,96216.19
2022-09-18T07:57:58.477Z,96210.78
2022-09-18T08:02:12.351Z,96214.03
2022-09-18T08:06:25.449Z,96219.06
2022-09-18T08:10:38.607Z,96218.94
2022-09-18T08:14:54.948Z,96232.25
2022-09-18T08:19:08.425Z,96228.13
2022-09-18T08:23:21.572Z,96236.56
2022-09-18T08:27:42.575Z,96232.44
2022-09-18T08:31:56.039Z,96228.28
2022-09-18T08:36:09.364Z,96228.00
2022-09-18T08:40:35.293Z,96224.47
2022-09-18T08:44:56.600Z,96224.56
2022-09-18T08:49:24.413Z,96230.47
2022-09-18T08:53:43.122Z,96222.16
2022-09-18T08:58:02.234Z,96231.22
2022-09-18T09:02:25.366Z,96233.22
2022-09-18T09:06:57.138Z,96229.91
2022-09-18T09:11:31.745Z,96234.19
2022-09-18T09:15:52.797Z,96223.97
2022-09-18T09:20:19.734Z,96229.13
2022-09-18T09:24:50.983Z,96221.91
2022-09-18T09:29:15.384Z,96223.88
2022-09-18T09:33:40.205Z,96226.78
2022-09-18T09:37:54.448Z,96217.66
2022-09-18T09:42:27.836Z,96203.31
2022-09-18T09:46:44.473Z,96211.94
2022-09-18T09:51:05.583Z,96219.47
2022-09-18T09:55:28.485Z,96217.34
2022-09-18T10:00:05.768Z,96212.75
2022-09-18T10:04:24.737Z,96212.59
2022-09-18T10:09:10.238Z,96227.06
2022-09-18T10:13:28.924Z,96220.66
2022-09-18T10:17:43.199Z,96222.41
2022-09-18T10:22:09.195Z,96222.53
2022-09-18T10:26:37.496Z,96225.88
2022-09-18T10:31:02.481Z,96232.06
2022-09-18T10:35:30.603Z,96219.06
2022-09-18T10:39:54.844Z,96217.00
2022-09-18T10:44:08.045Z,96222.19
2022-09-18T10:48:25.838Z,96218.50
2022-09-18T10:52:41.167Z,96219.94
2022-09-18T10:56:54.227Z,96205.13
2022-09-18T11:01:09.752Z,96207.25
2022-09-18T11:05:36.736Z,96213.31
2022-09-18T11:09:51.319Z,96215.94
2022-09-18T11:14:24.133Z,96211.38
2022-09-18T11:18:38.416Z,96212.59
2022-09-18T11:22:52.231Z,96208.03
2022-09-18T11:27:22.401Z,96204.69
2022-09-18T11:31:44.051Z,96208.03
2022-09-18T11:36:08.746Z,96196.84
2022-09-18T11:40:34.413Z,96197.22
2022-09-18T11:44:48.791Z,96195.59
2022-09-18T11:49:08.272Z,96183.50
2022-09-18T11:53:25.749Z,96179.53
2022-09-18T11:57:44.540Z,96179.44
2022-09-18T12:02:02.613Z,96186.78
2022-09-18T12:06:29.792Z,96183.53
2022-09-18T12:10:53.580Z,96193.31
2022-09-18T12:15:17.041Z,96182.50
2022-09-18T12:19:41.552Z,96172.69
2022-09-18T12:23:54.615Z,96177.47
2022-09-18T12:28:28.967Z,96172.13
2022-09-18T12:33:01.069Z,96177.94
2022-09-18T12:37:46.427Z,96179.25
2022-09-18T12:42:25.831Z,96179.25
2022-09-18T12:47:00.416Z,96174.47
2022-09-18T12:51:42.103Z,96184.09
2022-09-18T12:56:27.798Z,96182.94
2022-09-18T13:00:44.009Z,96163.00
2022-09-18T13:05:16.015Z,96160.09
2022-09-18T13:09:40.778Z,96158.41
2022-09-18T13:14:00.186Z,96157.84
2022-09-18T13:18:26.653Z,96158.44
2022-09-18T13:22:41.135Z,96144.34
2022-09-18T13:26:55.672Z,96154.19
2022-09-18T13:31:28.642Z,96133.56
2022-09-18T13:35:42.096Z,96142.75
2022-09-18T13:40:10.541Z,96128.25
2022-09-18T13:44:26.341Z,96133.75
2022-09-18T13:48:47.674Z,96137.66
2022-09-18T13:53:31.960Z,96135.91
2022-09-18T13:57:45.571Z,96119.63
2022-09-18T14:02:05.500Z,96127.41
2022-09-18T14:06:43.339Z,96105.59
2022-09-18T14:11:14.656Z,96109.69
2022-09-18T14:15:28.781Z,96108.75
2022-09-18T14:19:50.843Z,96114.59
2022-09-18T14:24:27.166Z,96111.75
2022-09-18T14:28:47.926Z,96107.56
2022-09-18T14:33:21.461Z,96084.13
2022-09-18T14:37:36.995Z,96083.25
2022-09-18T14:41:52.153Z,96085.78
2022-09-18T14:46:07.518Z,96066.47
2022-09-18T14:50:35.782Z,96076.09
2022-09-18T14:54:50.599Z,96064.63
2022-09-18T14:59:09.295Z,96071.38
2022-09-18T15:03:30.039Z,96069.78
2022-09-18T15:07:52.597Z,96071.03
2022-09-18T15:12:15.698Z,96061.03
2022-09-18T15:16:31.392Z,96064.97
2022-09-18T15:20:51.284Z,96059.97
2022-09-18T15:25:04.526Z,96056.91
2022-09-18T15:29:43.654Z,96060.94
2022-09-18T15:34:17.634Z,96049.69
2022-09-18T15:38:46.324Z,96061.25
2022-09-18T15:43:05.018Z,96050.75
2022-09-18T15:47:28.967Z,96056.91
2022-09-18T15:51:42.153Z,96057.00
2022-09-18T15:56:01.708Z,96041.66
2022-09-18T16:00:20.060Z,96043.38
2022-09-18T16:04:36.238Z,96042.25
2022-09-18T16:08:54.909Z,96039.03
2022-09-18T16:13:13.706Z,96039.41
2022-09-18T16:17:31.267Z,96030.06
2022-09-18T16:21:46.965Z,96035.00
2022-09-18T16:26:14.680Z,96028.06
2022-09-18T16:30:28.556Z,96010.69
2022-09-18T16:34:42.471Z,96016.31
2022-09-18T16:38:57.492Z,96013.06
2022-09-18T16:43:11.498Z,96016.50
2022-09-18T16:47:26.473Z,96025.38
2022-09-18T16:51:49.735Z,96027.88
2022-09-18T16:56:05.283Z,96021.09
2022-09-18T17:00:18.772Z,96027.97
2022-09-18T17:04:32.651Z,96013.47
2022-09-18T17:08:46.881Z,96021.44
2022-09-18T17:13:00.390Z,96021.88
2022-09-18T17:17:14.328Z,96021.56
2022-09-18T17:21:27.540Z,96016.09
2022-09-18T17:25:41.360Z,96019.81
2022-09-18T17:29:55.285Z,96022.19
2022-09-18T17:34:08.446Z,96014.00
2022-09-18T17:38:21.542Z,96019.63
2022-09-18T17:42:34.665Z,96016.84
2022-09-18T17:46:52.043Z,96018.84
2022-09-18T17:51:12.756Z,96021.59
2022-09-18T17:55:25.824Z,96022.28
2022-09-18T17:59:44.062Z,96027.63
2022-09-18T18:03:58.822Z,96027.06
2022-09-18T18:08:11.842Z,96024.94
2022-09-18T18:12:24.876Z,96028.16
2022-09-18T18:16:38.171Z,96021.41
2022-09-18T18:20:52.009Z,96040.97
2022-09-18T18:25:06.804Z,96039.72
2022-09-18T18:29:20.229Z,96040.22
2022-09-18T18:33:37.101Z,96038.78
2022-09-18T18:37:50.200Z,96042.19
2022-09-18T18:42:03.775Z,96022.94
2022-09-18T18:46:16.842Z,96032.06
2022-09-18T18:50:33.466Z,96037.00
2022-09-18T18:54:46.731Z,96029.50
2022-09-18T18:59:02.362Z,96027.56
2022-09-18T19:03:15.780Z,96026.22
2022-09-18T19:07:30.444Z,96038.03
2022-09-18T19:11:45.116Z,96031.91
2022-09-18T19:16:03.549Z,96033.34
2022-09-18T19:20:16.763Z,96031.28
2022-09-18T19:24:30.995Z,96036.22
2022-09-18T19:28:50.843Z,96034.09
2022-09-18T19:33:07.328Z,96028.69
2022-09-18T19:37:20.756Z,96021.22
2022-09-18T19:41:53.264Z,96019.34
2022-09-18T19:46:13.381Z,96010.28
2022-09-18T19:50:30.495Z,96004.53
2022-09-18T19:54:45.932Z,96001.78
2022-09-18T19:58:59.521Z,96000.81
2022-09-18T20:03:13.091Z,96010.16
2022-09-18T20:07:26.203Z,96008.34
2022-09-18T20:11:39.364Z,95997.09
2022-09-18T20:16:01.558Z,95993.75
2022-09-18T20:20:16.603Z,95997.59
2022-09-18T20:24:31.860Z,95996.16
2022-09-18T20:28:45.690Z,95969.75
2022-09-18T20:32:58.904Z,95974.50
2022-09-18T20:37:13.614Z,95982.78
2022-09-18T20:41:28.858Z,95974.50
2022-09-18T20:45:42.313Z,95964.34
2022-09-18T20:49:55.597Z,95963.38
2022-09-18T20:54:08.908Z,95955.16
2022-09-18T20:58:22.071Z,95962.13
2022-09-18T21:02:38.560Z,95958.41
2022-09-18T21:06:56.874Z,95969.88
2022-09-18T21:11:11.302Z,95965.69
2022-09-18T21:15:26.126Z,95958.31
2022-09-18T21:19:39.557Z,95949.34
2022-09-18T21:23:57.077Z,95961.00
2022-09-18T21:28:10.432Z,95948.41
2022-09-18T21:32:23.830Z,95937.69
2022-09-18T21:36:39.350Z,95929.59
2022-09-18T21:40:52.549Z,95945.59
2022-09-18T21:45:05.998Z,95930.63
2022-09-18T21:49:19.955Z,95929.41
2022-09-18T21:53:44.635Z,95921.78
2022-09-18T21:57:58.059Z,95928.13
2022-09-18T22:02:12.503Z,95915.25
2022-09-18T22:06:39.418Z,95918.72
2022-09-18T22:10:55.059Z,95917.16
2022-09-18T22:15:08.688Z,95924.16
2022-09-18T22:19:21.984Z,95927.44
2022-09-18T22:23:45.555Z,95933.31
2022-09-18T22:28:00.422Z,95930.34
2022-09-18T22:32:24.988Z,95937.47
2022-09-18T22:36:38.079Z,95937.19
2022-09-18T22:40:51.216Z,95935.09
2022-09-18T22:45:05.957Z,95934.19
2022-09-18T22:49:19.634Z,95938.16
2022-09-18T22:53:34.039Z,95933.94
2022-09-18T22:57:47.357Z,95934.41
2022-09-18T23:02:04.457Z,95938.00
2022-09-18T23:06:20.697Z,95925.00
2022-09-18T23:10:35.782Z,95924.75
2022-09-18T23:14:48.834Z,95922.56
2022-09-18T23:19:04.767Z,95929.78
2022-09-18T23:23:17.935Z,95937.16
2022-09-18T23:27:31.232Z,95944.03
2022-09-18T23:31:46.652Z,95940.88
2022-09-18T23:36:15.646Z,95941.97
2022-09-18T23:40:28.805Z,95942.41
2022-09-18T23:44:41.852Z,95956.53
2022-09-18T23:48:58.510Z,95966.13
2022-09-18T23:53:11.826Z,95975.78
2022-09-18T23:57:27.151Z,95983.16
